sensor_id;sensor_type;location;lat;lon;timestamp;pressure;altitude;pressure_sealevel;temperature;humidity
58385;BME280;44185;47.844;8.966;2023-02-26T00:00:56;95409.81;;;-1.04;85.58
58385;BME280;44185;47.844;8.966;2023-02-26T00:03:22;95406.34;;;-1.04;85.60
58385;BME280;44185;47.844;8.966;2023-02-26T00:05:47;95404.59;;;-1.04;86.22
58385;BME280;44185;47.844;8.966;2023-02-26T00:08:14;95413.22;;;-1.03;86.47
58385;BME280;44185;47.844;8.966;2023-02-26T00:10:39;95421.19;;;-1.06;85.56
58385;BME280;44185;47.844;8.966;2023-02-26T00:13:05;95423.00;;;-1.08;85.31
58385;BME280;44185;47.844;8.966;2023-02-26T00:15:31;95420.19;;;-1.04;85.39
58385;BME280;44185;47.844;8.966;2023-02-26T00:18:01;95421.34;;;-1.09;84.70
58385;BME280;44185;47.844;8.966;2023-02-26T00:20:29;95429.13;;;-1.09;83.58
58385;BME280;44185;47.844;8.966;2023-02-26T00:22:54;95423.66;;;-1.21;81.79
58385;BME280;44185;47.844;8.966;2023-02-26T00:25:21;95425.91;;;-1.31;81.48
58385;BME280;44185;47.844;8.966;2023-02-26T00:27:47;95428.13;;;-1.41;81.35
58385;BME280;44185;47.844;8.966;2023-02-26T00:30:13;95424.34;;;-1.35;82.38
58385;BME280;44185;47.844;8.966;2023-02-26T00:32:40;95427.59;;;-1.48;81.32
58385;BME280;44185;47.844;8.966;2023-02-26T00:35:06;95422.69;;;-1.54;80.98
58385;BME280;44185;47.844;8.966;2023-02-26T00:37:47;95426.53;;;-1.61;81.33
58385;BME280;44185;47.844;8.966;2023-02-26T00:40:21;95433.78;;;-1.68;81.80
58385;BME280;44185;47.844;8.966;2023-02-26T00:42:52;95430.34;;;-1.69;82.13
58385;BME280;44185;47.844;8.966;2023-02-26T00:45:18;95428.66;;;-1.70;81.30
58385;BME280;44185;47.844;8.966;2023-02-26T00:47:48;95431.50;;;-1.74;80.92
58385;BME280;44185;47.844;8.966;2023-02-26T00:50:17;95435.69;;;-1.90;81.37
58385;BME280;44185;47.844;8.966;2023-02-26T00:52:50;95440.19;;;-1.93;82.74
58385;BME280;44185;47.844;8.966;2023-02-26T00:55:17;95431.34;;;-1.89;83.05
58385;BME280;44185;47.844;8.966;2023-02-26T00:57:44;95437.16;;;-1.84;81.62
58385;BME280;44185;47.844;8.966;2023-02-26T01:00:11;95437.22;;;-2.03;81.65
58385;BME280;44185;47.844;8.966;2023-02-26T01:02:38;95436.44;;;-2.05;83.69
58385;BME280;44185;47.844;8.966;2023-02-26T01:05:05;95438.34;;;-2.09;82.76
58385;BME280;44185;47.844;8.966;2023-02-26T01:07:39;95438.84;;;-2.20;83.02
58385;BME280;44185;47.844;8.966;2023-02-26T01:10:07;95437.94;;;-2.19;83.21
58385;BME280;44185;47.844;8.966;2023-02-26T01:12:33;95439.28;;;-2.10;82.66
58385;BME280;44185;47.844;8.966;2023-02-26T01:15:00;95439.47;;;-2.15;81.38
58385;BME280;44185;47.844;8.966;2023-02-26T01:17:28;95436.47;;;-2.25;82.38
58385;BME280;44185;47.844;8.966;2023-02-26T01:20:00;95441.94;;;-2.31;81.93
58385;BME280;44185;47.844;8.966;2023-02-26T01:22:30;95436.94;;;-2.34;81.32
58385;BME280;44185;47.844;8.966;2023-02-26T01:25:01;95436.75;;;-2.31;81.91
58385;BME280;44185;47.844;8.966;2023-02-26T01:27:28;95438.97;;;-2.41;81.57
58385;BME280;44185;47.844;8.966;2023-02-26T01:29:54;95434.47;;;-2.37;82.17
58385;BME280;44185;47.844;8.966;2023-02-26T01:32:24;95437.91;;;-2.37;80.88
58385;BME280;44185;47.844;8.966;2023-02-26T01:34:56;95439.59;;;-2.36;81.33
58385;BME280;44185;47.844;8.966;2023-02-26T01:37:28;95434.53;;;-2.39;82.09
58385;BME280;44185;47.844;8.966;2023-02-26T01:40:18;95436.38;;;-2.41;82.38
58385;BME280;44185;47.844;8.966;2023-02-26T01:42:53;95437.66;;;-2.50;81.97
58385;BME280;44185;47.844;8.966;2023-02-26T01:45:25;95443.81;;;-2.52;82.46
58385;BME280;44185;47.844;8.966;2023-02-26T01:48:01;95446.41;;;-2.52;82.71
58385;BME280;44185;47.844;8.966;2023-02-26T01:50:28;95443.88;;;-2.54;83.21
58385;BME280;44185;47.844;8.966;2023-02-26T01:53:17;95447.53;;;-2.58;83.32
58385;BME280;44185;47.844;8.966;2023-02-26T01:55:44;95439.81;;;-2.60;84.10
58385;BME280;44185;47.844;8.966;2023-02-26T01:58:11;95444.00;;;-2.57;84.08
58385;BME280;44185;47.844;8.966;2023-02-26T02:00:37;95449.56;;;-2.65;82.31
58385;BME280;44185;47.844;8.966;2023-02-26T02:03:04;95448.03;;;-2.69;83.49
58385;BME280;44185;47.844;8.966;2023-02-26T02:05:32;95448.28;;;-2.75;83.57
58385;BME280;44185;47.844;8.966;2023-02-26T02:07:59;95441.38;;;-2.75;82.74
58385;BME280;44185;47.844;8.966;2023-02-26T02:10:25;95453.47;;;-2.75;83.29
58385;BME280;44185;47.844;8.966;2023-02-26T02:12:56;95444.19;;;-2.80;83.59
58385;BME280;44185;47.844;8.966;2023-02-26T02:15:31;95445.03;;;-2.79;83.96
58385;BME280;44185;47.844;8.966;2023-02-26T02:18:09;95449.72;;;-2.87;84.55
58385;BME280;44185;47.844;8.966;2023-02-26T02:20:58;95444.66;;;-2.91;84.53
58385;BME280;44185;47.844;8.966;2023-02-26T02:23:35;95446.53;;;-2.94;84.26
58385;BME280;44185;47.844;8.966;2023-02-26T02:26:27;95446.47;;;-2.93;84.63
58385;BME280;44185;47.844;8.966;2023-02-26T02:29:36;95457.94;;;-2.98;85.12
58385;BME280;44185;47.844;8.966;2023-02-26T02:32:12;95458.16;;;-3.03;85.67
58385;BME280;44185;47.844;8.966;2023-02-26T02:34:45;95459.28;;;-3.09;86.03
58385;BME280;44185;47.844;8.966;2023-02-26T02:37:17;95465.28;;;-3.08;86.31
58385;BME280;44185;47.844;8.966;2023-02-26T02:39:48;95472.34;;;-3.12;86.74
58385;BME280;44185;47.844;8.966;2023-02-26T02:42:22;95460.03;;;-3.07;87.20
58385;BME280;44185;47.844;8.966;2023-02-26T02:44:52;95469.50;;;-3.06;87.04
58385;BME280;44185;47.844;8.966;2023-02-26T02:47:23;95462.63;;;-3.07;87.43
58385;BME280;44185;47.844;8.966;2023-02-26T02:49:54;95463.25;;;-3.02;86.78
58385;BME280;44185;47.844;8.966;2023-02-26T02:52:26;95467.31;;;-2.96;86.79
58385;BME280;44185;47.844;8.966;2023-02-26T02:54:57;95464.03;;;-2.99;86.27
58385;BME280;44185;47.844;8.966;2023-02-26T02:57:23;95457.81;;;-2.95;86.55
58385;BME280;44185;47.844;8.966;2023-02-26T02:59:55;95461.38;;;-2.98;86.41
58385;BME280;44185;47.844;8.966;2023-02-26T03:02:27;95460.63;;;-3.00;85.08
58385;BME280;44185;47.844;8.966;2023-02-26T03:04:53;95463.34;;;-3.03;86.02
58385;BME280;44185;47.844;8.966;2023-02-26T03:07:19;95463.97;;;-2.98;86.35
58385;BME280;44185;47.844;8.966;2023-02-26T03:09:45;95456.34;;;-3.01;86.76
58385;BME280;44185;47.844;8.966;2023-02-26T03:12:11;95462.38;;;-3.00;86.39
58385;BME280;44185;47.844;8.966;2023-02-26T03:14:37;95467.41;;;-2.97;86.95
58385;BME280;44185;47.844;8.966;2023-02-26T03:17:18;95466.78;;;-3.03;87.25
58385;BME280;44185;47.844;8.966;2023-02-26T03:19:58;95469.91;;;-2.96;87.43
58385;BME280;44185;47.844;8.966;2023-02-26T03:22:34;95467.41;;;-2.97;87.10
58385;BME280;44185;47.844;8.966;2023-02-26T03:25:06;95469.84;;;-2.94;87.35
58385;BME280;44185;47.844;8.966;2023-02-26T03:27:35;95471.44;;;-2.92;87.21
58385;BME280;44185;47.844;8.966;2023-02-26T03:30:05;95472.44;;;-2.94;85.87
58385;BME280;44185;47.844;8.966;2023-02-26T03:32:40;95462.88;;;-2.92;85.24
58385;BME280;44185;47.844;8.966;2023-02-26T03:35:13;95467.75;;;-2.86;85.62
58385;BME280;44185;47.844;8.966;2023-02-26T03:37:43;95471.25;;;-2.87;85.20
58385;BME280;44185;47.844;8.966;2023-02-26T03:40:14;95473.00;;;-2.87;85.15
58385;BME280;44185;47.844;8.966;2023-02-26T03:42:42;95470.47;;;-2.89;84.82
58385;BME280;44185;47.844;8.966;2023-02-26T03:45:11;95478.41;;;-2.92;84.41
58385;BME280;44185;47.844;8.966;2023-02-26T03:47:39;95478.41;;;-2.92;84.26
58385;BME280;44185;47.844;8.966;2023-02-26T03:50:11;95483.50;;;-2.91;84.35
58385;BME280;44185;47.844;8.966;2023-02-26T03:52:41;95487.84;;;-2.91;84.85
58385;BME280;44185;47.844;8.966;2023-02-26T03:55:07;95489.41;;;-2.87;84.87
58385;BME280;44185;47.844;8.966;2023-02-26T03:57:34;95482.66;;;-2.91;84.52
58385;BME280;44185;47.844;8.966;2023-02-26T04:00:00;95493.97;;;-2.94;83.82
58385;BME280;44185;47.844;8.966;2023-02-26T04:02:27;95506.94;;;-2.94;83.69
58385;BME280;44185;47.844;8.966;2023-02-26T04:04:58;95507.00;;;-2.95;83.50
58385;BME280;44185;47.844;8.966;2023-02-26T04:07:26;95506.16;;;-2.96;84.08
58385;BME280;44185;47.844;8.966;2023-02-26T04:09:52;95509.66;;;-2.97;82.69
58385;BME280;44185;47.844;8.966;2023-02-26T04:12:20;95508.84;;;-2.97;83.11
58385;BME280;44185;47.844;8.966;2023-02-26T04:14:46;95516.59;;;-2.97;82.09
58385;BME280;44185;47.844;8.966;2023-02-26T04:17:11;95518.47;;;-3.01;82.44
58385;BME280;44185;47.844;8.966;2023-02-26T04:19:37;95518.34;;;-2.98;82.97
58385;BME280;44185;47.844;8.966;2023-02-26T04:22:02;95516.66;;;-2.99;82.87
58385;BME280;44185;47.844;8.966;2023-02-26T04:24:29;95514.91;;;-2.98;81.73
58385;BME280;44185;47.844;8.966;2023-02-26T04:26:55;95517.56;;;-3.00;82.08
58385;BME280;44185;47.844;8.966;2023-02-26T04:29:20;95516.66;;;-2.99;81.58
58385;BME280;44185;47.844;8.966;2023-02-26T04:31:46;95522.75;;;-3.00;80.15
58385;BME280;44185;47.844;8.966;2023-02-26T04:34:11;95525.19;;;-2.97;79.81
58385;BME280;44185;47.844;8.966;2023-02-26T04:36:36;95526.16;;;-2.99;80.37
58385;BME280;44185;47.844;8.966;2023-02-26T04:39:02;95521.13;;;-3.03;78.72
58385;BME280;44185;47.844;8.966;2023-02-26T04:41:29;95523.00;;;-3.06;78.38
58385;BME280;44185;47.844;8.966;2023-02-26T04:43:54;95523.00;;;-3.06;78.02
58385;BME280;44185;47.844;8.966;2023-02-26T04:46:20;95517.69;;;-3.03;77.69
58385;BME280;44185;47.844;8.966;2023-02-26T04:48:45;95523.22;;;-3.11;77.49
58385;BME280;44185;47.844;8.966;2023-02-26T04:51:10;95527.66;;;-3.15;77.46
58385;BME280;44185;47.844;8.966;2023-02-26T04:53:36;95526.25;;;-3.22;77.07
58385;BME280;44185;47.844;8.966;2023-02-26T04:56:01;95521.13;;;-3.24;78.14
58385;BME280;44185;47.844;8.966;2023-02-26T04:58:29;95520.56;;;-3.30;77.45
58385;BME280;44185;47.844;8.966;2023-02-26T05:00:56;95526.72;;;-3.33;77.73
58385;BME280;44185;47.844;8.966;2023-02-26T05:03:21;95529.28;;;-3.33;78.41
58385;BME280;44185;47.844;8.966;2023-02-26T05:05:47;95521.84;;;-3.41;79.01
58385;BME280;44185;47.844;8.966;2023-02-26T05:08:13;95519.19;;;-3.39;79.69
58385;BME280;44185;47.844;8.966;2023-02-26T05:10:38;95514.22;;;-3.44;79.37
58385;BME280;44185;47.844;8.966;2023-02-26T05:13:03;95522.19;;;-3.49;79.29
58385;BME280;44185;47.844;8.966;2023-02-26T05:15:30;95521.41;;;-3.51;79.40
58385;BME280;44185;47.844;8.966;2023-02-26T05:17:56;95518.22;;;-3.58;79.89
58385;BME280;44185;47.844;8.966;2023-02-26T05:20:22;95523.19;;;-3.53;79.80
58385;BME280;44185;47.844;8.966;2023-02-26T05:22:47;95520.69;;;-3.54;80.68
58385;BME280;44185;47.844;8.966;2023-02-26T05:25:13;95519.06;;;-3.57;80.98
58385;BME280;44185;47.844;8.966;2023-02-26T05:27:38;95519.28;;;-3.63;81.48
58385;BME280;44185;47.844;8.966;2023-02-26T05:30:05;95514.41;;;-3.70;82.39
58385;BME280;44185;47.844;8.966;2023-02-26T05:32:32;95526.41;;;-3.69;82.78
58385;BME280;44185;47.844;8.966;2023-02-26T05:34:58;95525.59;;;-3.69;83.77
58385;BME280;44185;47.844;8.966;2023-02-26T05:37:23;95530.56;;;-3.64;84.23
58385;BME280;44185;47.844;8.966;2023-02-26T05:39:48;95534.16;;;-3.69;84.19
58385;BME280;44185;47.844;8.966;2023-02-26T05:42:14;95540.38;;;-3.73;84.77
58385;BME280;44185;47.844;8.966;2023-02-26T05:44:39;95546.50;;;-3.75;84.96
58385;BME280;44185;47.844;8.966;2023-02-26T05:47:05;95550.78;;;-3.74;85.12
58385;BME280;44185;47.844;8.966;2023-02-26T05:49:31;95544.97;;;-3.80;85.66
58385;BME280;44185;47.844;8.966;2023-02-26T05:51:57;95551.91;;;-3.82;85.72
58385;BME280;44185;47.844;8.966;2023-02-26T05:54:23;95544.22;;;-3.83;86.16
58385;BME280;44185;47.844;8.966;2023-02-26T05:56:48;95555.59;;;-3.87;86.11
58385;BME280;44185;47.844;8.966;2023-02-26T05:59:14;95553.84;;;-3.87;86.42
58385;BME280;44185;47.844;8.966;2023-02-26T06:01:39;95555.06;;;-3.96;86.64
58385;BME280;44185;47.844;8.966;2023-02-26T06:04:05;95557.69;;;-3.97;86.57
58385;BME280;44185;47.844;8.966;2023-02-26T06:06:32;95568.88;;;-3.97;85.76
58385;BME280;44185;47.844;8.966;2023-02-26T06:08:58;95563.03;;;-4.02;85.25
58385;BME280;44185;47.844;8.966;2023-02-26T06:11:23;95571.56;;;-4.00;84.25
58385;BME280;44185;47.844;8.966;2023-02-26T06:13:49;95571.66;;;-4.02;82.24
58385;BME280;44185;47.844;8.966;2023-02-26T06:16:14;95578.66;;;-4.05;82.26
58385;BME280;44185;47.844;8.966;2023-02-26T06:18:40;95577.03;;;-4.08;80.98
58385;BME280;44185;47.844;8.966;2023-02-26T06:21:05;95581.44;;;-4.10;81.62
58385;BME280;44185;47.844;8.966;2023-02-26T06:23:32;95600.38;;;-4.09;82.16
58385;BME280;44185;47.844;8.966;2023-02-26T06:25:57;95603.75;;;-4.07;80.94
58385;BME280;44185;47.844;8.966;2023-02-26T06:28:23;95605.44;;;-4.06;80.36
58385;BME280;44185;47.844;8.966;2023-02-26T06:30:49;95602.00;;;-4.07;80.32
58385;BME280;44185;47.844;8.966;2023-02-26T06:33:16;95609.69;;;-4.05;80.38
58385;BME280;44185;47.844;8.966;2023-02-26T06:35:41;95617.53;;;-4.08;80.25
58385;BME280;44185;47.844;8.966;2023-02-26T06:38:06;95615.88;;;-4.09;80.92
58385;BME280;44185;47.844;8.966;2023-02-26T06:40:33;95621.09;;;-4.11;80.29
58385;BME280;44185;47.844;8.966;2023-02-26T06:42:59;95631.22;;;-4.05;79.90
58385;BME280;44185;47.844;8.966;2023-02-26T06:45:24;95630.47;;;-4.08;80.25
58385;BME280;44185;47.844;8.966;2023-02-26T06:47:50;95638.13;;;-4.05;79.41
58385;BME280;44185;47.844;8.966;2023-02-26T06:50:16;95641.47;;;-4.03;79.71
58385;BME280;44185;47.844;8.966;2023-02-26T06:52:41;95639.69;;;-4.01;79.99
58385;BME280;44185;47.844;8.966;2023-02-26T06:55:07;95643.00;;;-3.97;79.85
58385;BME280;44185;47.844;8.966;2023-02-26T06:57:34;95649.19;;;-4.02;79.42
58385;BME280;44185;47.844;8.966;2023-02-26T07:00:00;95643.06;;;-3.99;79.35
58385;BME280;44185;47.844;8.966;2023-02-26T07:02:25;95646.34;;;-3.95;78.21
58385;BME280;44185;47.844;8.966;2023-02-26T07:04:51;95648.00;;;-3.93;78.06
58385;BME280;44185;47.844;8.966;2023-02-26T07:07:16;95658.31;;;-3.93;77.14
58385;BME280;44185;47.844;8.966;2023-02-26T07:09:42;95653.13;;;-3.91;76.27
58385;BME280;44185;47.844;8.966;2023-02-26T07:12:08;95653.91;;;-3.89;77.19
58385;BME280;44185;47.844;8.966;2023-02-26T07:14:35;95660.63;;;-3.85;76.04
58385;BME280;44185;47.844;8.966;2023-02-26T07:17:00;95664.88;;;-3.82;76.12
58385;BME280;44185;47.844;8.966;2023-02-26T07:19:26;95669.00;;;-3.78;75.42
58385;BME280;44185;47.844;8.966;2023-02-26T07:21:51;95669.84;;;-3.77;74.98
58385;BME280;44185;47.844;8.966;2023-02-26T07:24:17;95664.50;;;-3.73;75.27
58385;BME280;44185;47.844;8.966;2023-02-26T07:26:42;95658.28;;;-3.69;75.67
58385;BME280;44185;47.844;8.966;2023-02-26T07:29:08;95666.03;;;-3.67;74.98
58385;BME280;44185;47.844;8.966;2023-02-26T07:31:35;95653.94;;;-3.66;74.68
58385;BME280;44185;47.844;8.966;2023-02-26T07:34:00;95660.53;;;-3.59;75.45
58385;BME280;44185;47.844;8.966;2023-02-26T07:36:26;95657.66;;;-3.51;75.94
58385;BME280;44185;47.844;8.966;2023-02-26T07:38:51;95656.06;;;-3.55;75.13
58385;BME280;44185;47.844;8.966;2023-02-26T07:41:16;95665.31;;;-3.48;76.01
58385;BME280;44185;47.844;8.966;2023-02-26T07:43:42;95674.56;;;-3.42;76.38
58385;BME280;44185;47.844;8.966;2023-02-26T07:46:08;95676.47;;;-3.48;75.90
58385;BME280;44185;47.844;8.966;2023-02-26T07:48:35;95667.81;;;-3.47;75.23
58385;BME280;44185;47.844;8.966;2023-02-26T07:51:00;95676.34;;;-3.44;75.41
58385;BME280;44185;47.844;8.966;2023-02-26T07:53:26;95685.81;;;-3.43;75.87
58385;BME280;44185;47.844;8.966;2023-02-26T07:55:51;95676.63;;;-3.51;75.78
58385;BME280;44185;47.844;8.966;2023-02-26T07:58:17;95694.59;;;-3.48;75.93
58385;BME280;44185;47.844;8.966;2023-02-26T08:00:43;95690.47;;;-3.29;75.72
58385;BME280;44185;47.844;8.966;2023-02-26T08:03:08;95694.22;;;-3.16;74.47
58385;BME280;44185;47.844;8.966;2023-02-26T08:05:35;95690.75;;;-3.15;74.18
58385;BME280;44185;47.844;8.966;2023-02-26T08:08:00;95684.25;;;-3.03;73.86
58385;BME280;44185;47.844;8.966;2023-02-26T08:10:26;95693.03;;;-2.86;73.47
58385;BME280;44185;47.844;8.966;2023-02-26T08:12:51;95686.13;;;-2.85;72.70
58385;BME280;44185;47.844;8.966;2023-02-26T08:15:17;95691.38;;;-2.87;72.08
58385;BME280;44185;47.844;8.966;2023-02-26T08:17:42;95690.13;;;-2.78;72.29
58385;BME280;44185;47.844;8.966;2023-02-26T08:20:09;95699.09;;;-2.64;71.97
58385;BME280;44185;47.844;8.966;2023-02-26T08:22:36;95693.34;;;-2.50;70.81
58385;BME280;44185;47.844;8.966;2023-02-26T08:25:02;95696.09;;;-2.34;71.22
58385;BME280;44185;47.844;8.966;2023-02-26T08:27:28;95693.97;;;-2.45;69.81
58385;BME280;44185;47.844;8.966;2023-02-26T08:29:53;95684.72;;;-2.72;69.16
58385;BME280;44185;47.844;8.966;2023-02-26T08:32:19;95681.59;;;-2.59;70.33
58385;BME280;44185;47.844;8.966;2023-02-26T08:34:45;95689.81;;;-2.28;69.80
58385;BME280;44185;47.844;8.966;2023-02-26T08:37:11;95690.66;;;-2.28;69.10
58385;BME280;44185;47.844;8.966;2023-02-26T08:39:38;95681.22;;;-2.09;69.06
58385;BME280;44185;47.844;8.966;2023-02-26T08:42:04;95688.44;;;-2.16;67.40
58385;BME280;44185;47.844;8.966;2023-02-26T08:44:31;95685.56;;;-2.10;68.43
58385;BME280;44185;47.844;8.966;2023-02-26T08:46:56;95687.06;;;-2.25;67.52
58385;BME280;44185;47.844;8.966;2023-02-26T08:49:22;95683.00;;;-2.10;68.24
58385;BME280;44185;47.844;8.966;2023-02-26T08:51:47;95679.13;;;-2.01;67.93
58385;BME280;44185;47.844;8.966;2023-02-26T08:54:13;95671.78;;;-1.91;65.83
58385;BME280;44185;47.844;8.966;2023-02-26T08:56:40;95668.47;;;-1.95;66.49
58385;BME280;44185;47.844;8.966;2023-02-26T08:59:05;95670.16;;;-1.94;67.08
58385;BME280;44185;47.844;8.966;2023-02-26T09:01:31;95677.28;;;-1.99;66.17
58385;BME280;44185;47.844;8.966;2023-02-26T09:03:56;95682.66;;;-2.02;67.25
58385;BME280;44185;47.844;8.966;2023-02-26T09:06:21;95686.28;;;-2.06;67.69
58385;BME280;44185;47.844;8.966;2023-02-26T09:08:47;95687.88;;;-2.23;66.90
58385;BME280;44185;47.844;8.966;2023-02-26T09:11:12;95680.56;;;-2.34;64.35
58385;BME280;44185;47.844;8.966;2023-02-26T09:13:40;95690.28;;;-2.39;66.13
58385;BME280;44185;47.844;8.966;2023-02-26T09:16:06;95693.75;;;-2.19;66.11
58385;BME280;44185;47.844;8.966;2023-02-26T09:18:31;95698.97;;;-2.40;66.38
58385;BME280;44185;47.844;8.966;2023-02-26T09:20:57;95700.06;;;-2.46;65.80
58385;BME280;44185;47.844;8.966;2023-02-26T09:23:23;95697.44;;;-2.25;66.07
58385;BME280;44185;47.844;8.966;2023-02-26T09:25:51;95702.94;;;-2.12;63.66
58385;BME280;44185;47.844;8.966;2023-02-26T09:28:17;95700.00;;;-2.24;63.20
58385;BME280;44185;47.844;8.966;2023-02-26T09:30:44;95709.84;;;-2.32;65.11
58385;BME280;44185;47.844;8.966;2023-02-26T09:33:09;95708.09;;;-2.52;64.79
58385;BME280;44185;47.844;8.966;2023-02-26T09:35:35;95709.44;;;-2.43;65.61
58385;BME280;44185;47.844;8.966;2023-02-26T09:38:00;95709.25;;;-2.39;66.18
58385;BME280;44185;47.844;8.966;2023-02-26T09:40:35;95703.34;;;-2.21;65.73
58385;BME280;44185;47.844;8.966;2023-02-26T09:43:14;95699.91;;;-1.82;65.01
58385;BME280;44185;47.844;8.966;2023-02-26T09:45:46;95703.84;;;-1.73;64.81
58385;BME280;44185;47.844;8.966;2023-02-26T09:48:15;95694.63;;;-1.80;65.45
58385;BME280;44185;47.844;8.966;2023-02-26T09:50:45;95700.97;;;-2.07;66.11
58385;BME280;44185;47.844;8.966;2023-02-26T09:53:16;95712.63;;;-2.37;67.05
58385;BME280;44185;47.844;8.966;2023-02-26T09:55:45;95721.50;;;-2.42;67.88
58385;BME280;44185;47.844;8.966;2023-02-26T09:58:16;95710.28;;;-2.43;68.63
58385;BME280;44185;47.844;8.966;2023-02-26T10:00:49;95712.47;;;-2.33;68.80
58385;BME280;44185;47.844;8.966;2023-02-26T10:03:24;95715.47;;;-2.22;68.71
58385;BME280;44185;47.844;8.966;2023-02-26T10:06:06;95716.00;;;-2.35;68.72
58385;BME280;44185;47.844;8.966;2023-02-26T10:08:41;95721.72;;;-2.47;69.99
58385;BME280;44185;47.844;8.966;2023-02-26T10:11:13;95728.31;;;-2.40;69.48
58385;BME280;44185;47.844;8.966;2023-02-26T10:13:45;95728.84;;;-2.31;68.92
58385;BME280;44185;47.844;8.966;2023-02-26T10:16:17;95724.47;;;-2.31;68.55
58385;BME280;44185;47.844;8.966;2023-02-26T10:18:46;95722.38;;;-2.22;69.52
58385;BME280;44185;47.844;8.966;2023-02-26T10:21:16;95730.81;;;-2.17;68.27
58385;BME280;44185;47.844;8.966;2023-02-26T10:23:50;95731.72;;;-1.59;67.68
58385;BME280;44185;47.844;8.966;2023-02-26T10:26:19;95721.19;;;-1.75;66.16
58385;BME280;44185;47.844;8.966;2023-02-26T10:28:56;95727.03;;;-1.70;67.46
58385;BME280;44185;47.844;8.966;2023-02-26T10:31:31;95719.44;;;-1.74;68.38
58385;BME280;44185;47.844;8.966;2023-02-26T10:34:09;95708.25;;;-1.55;67.91
58385;BME280;44185;47.844;8.966;2023-02-26T10:36:41;95727.81;;;-1.48;67.07
58385;BME280;44185;47.844;8.966;2023-02-26T10:39:18;95720.50;;;-1.59;66.94
58385;BME280;44185;47.844;8.966;2023-02-26T10:41:46;95724.00;;;-1.80;66.72
58385;BME280;44185;47.844;8.966;2023-02-26T10:44:16;95727.25;;;-1.74;68.64
58385;BME280;44185;47.844;8.966;2023-02-26T10:46:48;95730.91;;;-1.79;67.66
58385;BME280;44185;47.844;8.966;2023-02-26T10:49:33;95724.72;;;-1.76;67.99
58385;BME280;44185;47.844;8.966;2023-02-26T10:52:04;95721.19;;;-1.75;68.40
58385;BME280;44185;47.844;8.966;2023-02-26T10:54:35;95727.06;;;-1.91;67.83
58385;BME280;44185;47.844;8.966;2023-02-26T10:57:01;95732.84;;;-1.64;68.02
58385;BME280;44185;47.844;8.966;2023-02-26T10:59:27;95730.34;;;-1.47;67.31
58385;BME280;44185;47.844;8.966;2023-02-26T11:01:54;95730.69;;;-1.54;65.27
58385;BME280;44185;47.844;8.966;2023-02-26T11:04:21;95744.16;;;-1.46;66.19
58385;BME280;44185;47.844;8.966;2023-02-26T11:06:50;95748.84;;;-1.35;66.24
58385;BME280;44185;47.844;8.966;2023-02-26T11:09:19;95744.56;;;-1.55;66.50
58385;BME280;44185;47.844;8.966;2023-02-26T11:11:52;95738.53;;;-1.56;66.45
58385;BME280;44185;47.844;8.966;2023-02-26T11:14:17;95741.63;;;-1.67;66.54
58385;BME280;44185;47.844;8.966;2023-02-26T11:16:47;95747.66;;;-1.66;66.89
58385;BME280;44185;47.844;8.966;2023-02-26T11:19:15;95744.44;;;-1.52;66.98
58385;BME280;44185;47.844;8.966;2023-02-26T11:21:44;95737.53;;;-1.15;65.73
58385;BME280;44185;47.844;8.966;2023-02-26T11:24:15;95744.63;;;-1.18;66.07
58385;BME280;44185;47.844;8.966;2023-02-26T11:26:46;95750.88;;;-1.23;65.49
58385;BME280;44185;47.844;8.966;2023-02-26T11:29:14;95750.19;;;-1.26;65.54
58385;BME280;44185;47.844;8.966;2023-02-26T11:31:40;95745.75;;;-1.24;65.48
58385;BME280;44185;47.844;8.966;2023-02-26T11:34:08;95738.66;;;-1.20;64.99
58385;BME280;44185;47.844;8.966;2023-02-26T11:36:38;95746.88;;;-1.10;65.52
58385;BME280;44185;47.844;8.966;2023-02-26T11:39:07;95748.06;;;-0.98;65.58
58385;BME280;44185;47.844;8.966;2023-02-26T11:41:35;95751.66;;;-1.20;66.26
58385;BME280;44185;47.844;8.966;2023-02-26T11:44:04;95742.88;;;-0.81;67.24
58385;BME280;44185;47.844;8.966;2023-02-26T11:46:35;95737.06;;;-0.86;66.99
58385;BME280;44185;47.844;8.966;2023-02-26T11:49:03;95747.97;;;-0.97;66.66
58385;BME280;44185;47.844;8.966;2023-02-26T11:51:29;95748.69;;;-1.13;67.50
58385;BME280;44185;47.844;8.966;2023-02-26T11:53:57;95746.47;;;-1.40;68.52
58385;BME280;44185;47.844;8.966;2023-02-26T11:56:26;95751.03;;;-1.26;68.85
58385;BME280;44185;47.844;8.966;2023-02-26T11:58:54;95728.59;;;-1.46;68.13
58385;BME280;44185;47.844;8.966;2023-02-26T12:01:26;95730.13;;;-1.42;69.22
58385;BME280;44185;47.844;8.966;2023-02-26T12:03:52;95738.72;;;-1.22;69.36
58385;BME280;44185;47.844;8.966;2023-02-26T12:06:20;95737.28;;;-1.28;69.49
58385;BME280;44185;47.844;8.966;2023-02-26T12:08:46;95736.47;;;-1.10;69.57
58385;BME280;44185;47.844;8.966;2023-02-26T12:11:37;95731.00;;;-1.04;71.93
58385;BME280;44185;47.844;8.966;2023-02-26T12:14:16;95728.66;;;-0.91;71.94
58385;BME280;44185;47.844;8.966;2023-02-26T12:16:53;95736.31;;;-0.70;72.58
58385;BME280;44185;47.844;8.966;2023-02-26T12:19:34;95742.13;;;-0.83;75.35
58385;BME280;44185;47.844;8.966;2023-02-26T12:22:10;95736.22;;;-0.69;77.32
58385;BME280;44185;47.844;8.966;2023-02-26T12:24:51;95744.41;;;-1.14;81.78
58385;BME280;44185;47.844;8.966;2023-02-26T12:27:27;95748.03;;;-1.36;84.53
58385;BME280;44185;47.844;8.966;2023-02-26T12:30:08;95749.53;;;-1.12;86.51
58385;BME280;44185;47.844;8.966;2023-02-26T12:32:46;95751.59;;;-1.58;86.25
58385;BME280;44185;47.844;8.966;2023-02-26T12:35:41;95742.66;;;-1.32;90.28
58385;BME280;44185;47.844;8.966;2023-02-26T12:38:19;95740.81;;;-0.74;91.36
58385;BME280;44185;47.844;8.966;2023-02-26T12:44:05;95739.72;;;-0.87;86.28
58385;BME280;44185;47.844;8.966;2023-02-26T12:46:46;95739.94;;;-0.37;85.94
58385;BME280;44185;47.844;8.966;2023-02-26T12:49:29;95734.41;;;-0.31;83.89
58385;BME280;44185;47.844;8.966;2023-02-26T12:52:20;95734.66;;;-0.53;80.99
58385;BME280;44185;47.844;8.966;2023-02-26T12:55:02;95733.88;;;-0.56;80.91
58385;BME280;44185;47.844;8.966;2023-02-26T12:58:16;95748.81;;;0.10;79.02
58385;BME280;44185;47.844;8.966;2023-02-26T13:01:05;95736.41;;;-0.54;76.85
58385;BME280;44185;47.844;8.966;2023-02-26T13:03:43;95747.66;;;-0.53;79.55
58385;BME280;44185;47.844;8.966;2023-02-26T13:09:16;95742.00;;;-0.62;78.19
58385;BME280;44185;47.844;8.966;2023-02-26T13:11:53;95734.66;;;-0.53;77.13
58385;BME280;44185;47.844;8.966;2023-02-26T13:14:31;95747.09;;;-0.42;76.53
58385;BME280;44185;47.844;8.966;2023-02-26T13:17:05;95748.38;;;-0.16;75.02